createdAt,value
2022-11-24T00:01:59.945Z,-22.10
2022-11-24T00:04:29.143Z,-22.19
2022-11-24T00:06:58.290Z,-24.18
2022-11-24T00:09:27.406Z,-22.71
2022-11-24T00:11:56.616Z,-22.42
2022-11-24T00:14:27.348Z,-22.75
2022-11-24T00:16:56.674Z,-22.53
2022-11-24T00:19:25.925Z,-23.47
2022-11-24T00:22:15.188Z,-22.67
2022-11-24T00:24:44.766Z,-22.76
2022-11-24T00:27:14.033Z,-22.81
2022-11-24T00:29:44.710Z,-24.21
2022-11-24T00:32:13.923Z,-23.33
2022-11-24T00:34:43.062Z,-23.61
2022-11-24T00:37:12.318Z,-23.67
2022-11-24T00:39:41.519Z,-23.45
2022-11-24T00:42:10.630Z,-24.47
2022-11-24T00:44:39.797Z,-23.67
2022-11-24T00:47:10.503Z,-24.28
2022-11-24T00:49:39.837Z,-24.46
2022-11-24T00:52:08.956Z,-23.18
2022-11-24T00:54:38.169Z,-23.09
2022-11-24T00:57:07.679Z,-24.38
2022-11-24T00:59:36.851Z,-23.11
2022-11-24T01:02:06.146Z,-24.61
2022-11-24T01:04:36.913Z,-23.35
2022-11-24T01:07:06.190Z,-23.52
2022-11-24T01:09:35.447Z,-24.29
2022-11-24T01:12:04.637Z,-24.06
2022-11-24T01:14:34.788Z,-23.78
2022-11-24T01:17:04.185Z,-24.18
2022-11-24T01:19:33.359Z,-24.52
2022-11-24T01:22:04.009Z,-24.18
2022-11-24T01:24:33.424Z,-23.22
2022-11-24T01:27:02.866Z,-23.21
2022-11-24T01:29:32.207Z,-23.44
2022-11-24T01:32:01.356Z,-23.21
2022-11-24T01:34:30.660Z,-24.33
2022-11-24T01:36:59.894Z,-23.22
2022-11-24T01:39:30.609Z,-23.88
2022-11-24T01:42:03.379Z,-23.20
2022-11-24T01:44:33.544Z,-24.25
2022-11-24T01:47:07.774Z,-24.56
2022-11-24T01:49:46.998Z,-23.12
2022-11-24T01:52:21.847Z,-23.09
2022-11-24T01:54:57.139Z,-23.07
2022-11-24T01:57:30.885Z,-23.01
2022-11-24T02:00:05.291Z,-23.28
2022-11-24T02:02:34.953Z,-23.10
2022-11-24T02:05:10.513Z,-22.75
2022-11-24T02:07:41.846Z,-22.87
2022-11-24T02:10:15.531Z,-22.52
2022-11-24T02:12:48.355Z,-22.50
2022-11-24T02:15:18.681Z,-23.25
2022-11-24T02:17:47.922Z,-22.25
2022-11-24T02:20:18.283Z,-22.49
2022-11-24T02:22:54.711Z,-22.58
2022-11-24T02:25:36.867Z,-22.06
2022-11-24T02:28:11.330Z,-22.03
2022-11-24T02:30:40.797Z,-21.99
2022-11-24T02:33:10.133Z,-21.95
2022-11-24T02:35:39.655Z,-22.23
2022-11-24T02:38:08.806Z,-21.87
2022-11-24T02:40:38.292Z,-21.85
2022-11-24T02:43:13.595Z,-21.96
2022-11-24T02:45:42.873Z,-21.88
2022-11-24T02:48:12.280Z,-21.91
2022-11-24T02:50:41.444Z,-21.86
2022-11-24T02:53:10.599Z,-22.67
2022-11-24T02:55:39.733Z,-22.62
2022-11-24T02:58:10.396Z,-22.05
2022-11-24T03:00:40.595Z,-21.93
2022-11-24T03:03:09.813Z,-22.54
2022-11-24T03:05:39.037Z,-22.64
2022-11-24T03:08:08.247Z,-21.59
2022-11-24T03:10:37.382Z,-22.45
2022-11-24T03:13:06.596Z,-21.97
2022-11-24T03:15:37.454Z,-20.95
2022-11-24T03:18:06.628Z,-22.20
2022-11-24T03:20:36.097Z,-21.97
2022-11-24T03:23:05.225Z,-20.57
2022-11-24T03:25:34.448Z,-20.47
2022-11-24T03:28:03.558Z,-21.75
2022-11-24T03:30:32.733Z,-20.61
2022-11-24T03:33:05.517Z,-20.26
2022-11-24T03:35:35.656Z,-20.22
2022-11-24T03:38:04.833Z,-20.48
2022-11-24T03:40:35.133Z,-21.04
2022-11-24T03:43:04.352Z,-20.24
2022-11-24T03:45:48.803Z,-19.87
2022-11-24T03:48:21.733Z,-19.77
2022-11-24T03:50:56.716Z,-19.99
2022-11-24T03:53:27.011Z,-20.24
2022-11-24T03:55:56.804Z,-19.62
2022-11-24T03:58:26.315Z,-19.61
2022-11-24T04:00:56.471Z,-19.63
2022-11-24T04:03:27.710Z,-20.48
2022-11-24T04:05:56.833Z,-20.09
2022-11-24T04:08:26.050Z,-20.23
2022-11-24T04:10:56.566Z,-19.98
2022-11-24T04:13:26.167Z,-20.50
2022-11-24T04:15:55.917Z,-20.31
2022-11-24T04:18:26.806Z,-20.74
2022-11-24T04:20:56.967Z,-22.22
2022-11-24T04:23:26.220Z,-20.82
2022-11-24T04:25:55.340Z,-20.64
2022-11-24T04:28:24.480Z,-20.64
2022-11-24T04:30:53.684Z,-20.86
2022-11-24T04:33:26.462Z,-21.59
2022-11-24T04:35:55.957Z,-21.54
2022-11-24T04:39:24.689Z,-20.50
2022-11-24T04:41:14.235Z,-20.95
2022-11-24T04:43:45.197Z,-20.44
2022-11-24T04:46:14.380Z,-20.44
2022-11-24T04:48:47.146Z,-20.42
2022-11-24T04:51:17.258Z,-20.52
2022-11-24T04:53:46.373Z,-20.36
2022-11-24T04:56:15.484Z,-20.45
2022-11-24T04:58:44.553Z,-20.22
2022-11-24T05:01:13.818Z,-20.11
2022-11-24T05:03:43.030Z,-20.26
2022-11-24T05:06:13.661Z,-19.92
2022-11-24T05:08:42.950Z,-19.80
2022-11-24T05:11:11.978Z,-19.76
2022-11-24T05:13:41.092Z,-19.66
2022-11-24T05:16:10.556Z,-19.75
2022-11-24T05:18:40.002Z,-19.67
2022-11-24T05:21:09.115Z,-19.58
2022-11-24T05:23:39.749Z,-19.61
2022-11-24T05:26:09.136Z,-19.51
2022-11-24T05:28:38.355Z,-19.47
2022-11-24T05:31:08.512Z,-19.85
2022-11-24T05:33:38.678Z,-19.54
2022-11-24T05:36:09.304Z,-19.84
2022-11-24T05:38:40.081Z,-20.03
2022-11-24T05:41:09.152Z,-20.49
2022-11-24T05:43:38.323Z,-19.72
2022-11-24T05:46:07.680Z,-19.66
2022-11-24T05:48:36.868Z,-19.26
2022-11-24T05:51:09.217Z,-19.06
2022-11-24T05:53:40.168Z,-19.13
2022-11-24T05:56:10.027Z,-19.03
2022-11-24T05:58:39.149Z,-18.85
2022-11-24T06:01:09.550Z,-18.88
2022-11-24T06:03:38.873Z,-19.07
2022-11-24T06:06:08.927Z,-19.04
2022-11-24T06:08:39.627Z,-18.77
2022-11-24T06:11:19.159Z,-18.79
2022-11-24T06:13:50.079Z,-18.83
2022-11-24T06:16:20.543Z,-18.84
2022-11-24T06:18:49.746Z,-18.96
2022-11-24T06:21:18.934Z,-18.78
2022-11-24T06:23:51.272Z,-18.63
2022-11-24T06:26:20.496Z,-18.58
2022-11-24T06:28:49.660Z,-18.43
2022-11-24T06:31:19.169Z,-18.75
2022-11-24T06:33:48.419Z,-18.15
2022-11-24T06:36:17.648Z,-18.03
2022-11-24T06:38:46.837Z,-18.16
2022-11-24T06:41:18.699Z,-17.95
2022-11-24T06:43:48.455Z,-17.80
2022-11-24T06:46:17.545Z,-17.62
2022-11-24T06:48:46.600Z,-17.49
2022-11-24T06:51:15.985Z,-17.56
2022-11-24T06:53:45.074Z,-17.38
2022-11-24T06:56:17.032Z,-17.10
2022-11-24T06:58:49.311Z,-16.78
2022-11-24T07:01:19.116Z,-16.76
2022-11-24T07:03:50.020Z,-16.35
2022-11-24T07:06:20.277Z,-16.60
2022-11-24T07:08:49.756Z,-16.15
2022-11-24T07:11:21.068Z,-15.99
2022-11-24T07:13:59.631Z,-15.87
2022-11-24T07:16:37.910Z,-16.07
2022-11-24T07:19:07.138Z,-15.82
2022-11-24T07:21:36.686Z,-16.35
2022-11-24T07:24:11.120Z,-15.65
2022-11-24T07:26:40.690Z,-15.67
2022-11-24T07:29:13.751Z,-15.66
2022-11-24T07:31:43.088Z,-15.81
2022-11-24T07:34:15.278Z,-15.88
2022-11-24T07:36:50.641Z,-15.79
2022-11-24T07:39:20.028Z,-15.99
2022-11-24T07:41:52.023Z,-15.93
2022-11-24T07:44:22.617Z,-16.34
2022-11-24T07:46:54.367Z,-16.04
2022-11-24T07:49:25.545Z,-16.04
2022-11-24T07:51:54.672Z,-17.90
2022-11-24T07:54:23.784Z,-16.45
2022-11-24T07:56:53.058Z,-16.04
2022-11-24T07:59:23.636Z,-16.03
2022-11-24T08:01:52.852Z,-16.04
2022-11-24T08:04:21.953Z,-16.02
2022-11-24T08:06:51.116Z,-15.97
2022-11-24T08:09:22.396Z,-15.96
2022-11-24T08:11:51.525Z,-16.21
2022-11-24T08:14:20.635Z,-15.89
2022-11-24T08:16:51.357Z,-16.02
2022-11-24T08:19:20.735Z,-15.98
2022-11-24T08:21:49.825Z,-16.13
2022-11-24T08:24:18.984Z,-16.07
2022-11-24T08:26:48.145Z,-15.99
2022-11-24T08:29:17.591Z,-16.01
2022-11-24T08:31:46.790Z,-15.96
2022-11-24T08:34:17.508Z,-15.97
2022-11-24T08:36:46.618Z,-16.05
2022-11-24T08:39:15.711Z,-16.05
2022-11-24T08:41:44.951Z,-16.11
2022-11-24T08:44:16.275Z,-16.50
2022-11-24T08:46:45.483Z,-16.26
2022-11-24T08:49:15.688Z,-16.37
2022-11-24T08:51:47.415Z,-16.97
2022-11-24T08:54:19.101Z,-16.75
2022-11-24T08:56:51.090Z,-16.67
2022-11-24T08:59:20.281Z,-16.75
2022-11-24T09:01:49.761Z,-16.99
2022-11-24T09:04:20.669Z,-16.84
2022-11-24T09:06:51.316Z,-16.84
2022-11-24T09:09:20.388Z,-16.85
2022-11-24T09:11:49.624Z,-16.87
2022-11-24T09:14:18.738Z,-16.89
2022-11-24T09:16:47.946Z,-16.93
2022-11-24T09:19:17.145Z,-17.00
2022-11-24T09:21:46.224Z,-17.06
2022-11-24T09:24:16.927Z,-17.28
2022-11-24T09:26:47.615Z,-17.16
2022-11-24T09:29:20.879Z,-17.27
2022-11-24T09:31:50.985Z,-17.19
2022-11-24T09:34:20.101Z,-17.60
2022-11-24T09:36:49.219Z,-17.28
2022-11-24T09:39:19.923Z,-17.32
2022-11-24T09:42:06.091Z,-17.38
2022-11-24T09:44:59.199Z,-17.47
2022-11-24T09:47:40.285Z,-17.67
2022-11-24T09:50:16.980Z,-17.69
2022-11-24T09:52:52.214Z,-17.54
2022-11-24T09:55:34.812Z,-17.56
2022-11-24T09:58:13.199Z,-17.54
2022-11-24T10:00:44.173Z,-17.90
2022-11-24T10:03:21.629Z,-17.78
2022-11-24T10:05:52.958Z,-17.45
2022-11-24T10:08:38.105Z,-17.42
2022-11-24T10:11:14.981Z,-17.51
2022-11-24T10:14:22.909Z,-17.55
2022-11-24T10:16:59.214Z,-17.54
2022-11-24T10:19:42.748Z,-17.69
2022-11-24T10:22:29.713Z,-17.71
2022-11-24T10:25:15.445Z,-17.72
2022-11-24T10:27:48.892Z,-17.75
2022-11-24T10:30:21.238Z,-17.80
2022-11-24T10:33:00.538Z,-17.85
2022-11-24T10:35:40.693Z,-17.93
2022-11-24T10:38:23.624Z,-18.04
2022-11-24T10:40:57.851Z,-18.45
2022-11-24T10:43:34.328Z,-18.22
2022-11-24T10:46:14.144Z,-18.46
2022-11-24T10:48:48.782Z,-18.37
2022-11-24T10:51:39.076Z,-18.72
2022-11-24T10:54:15.557Z,-18.51
2022-11-24T10:56:56.961Z,-18.64
2022-11-24T10:59:37.836Z,-18.56
2022-11-24T11:02:35.675Z,-18.58
2022-11-24T11:05:28.383Z,-18.56
2022-11-24T11:08:21.443Z,-18.57
2022-11-24T11:10:51.915Z,-18.60
2022-11-24T11:13:29.783Z,-18.80
2022-11-24T11:16:01.191Z,-18.57
2022-11-24T11:18:34.262Z,-18.58
2022-11-24T11:21:04.214Z,-18.55
2022-11-24T11:23:36.839Z,-18.49
2022-11-24T11:26:32.747Z,-19.01
2022-11-24T11:34:54.315Z,-18.31
2022-11-24T11:37:26.182Z,-18.15
2022-11-24T11:39:56.895Z,-18.04
2022-11-24T11:43:01.228Z,-18.02
2022-11-24T11:45:30.755Z,-18.04
2022-11-24T11:48:18.330Z,-17.78
2022-11-24T11:51:21.791Z,-17.89
2022-11-24T11:53:46.914Z,-17.65
2022-11-24T11:56:26.146Z,-17.67
2022-11-24T11:59:30.500Z,-18.12
2022-11-24T12:02:29.264Z,-17.66
2022-11-24T12:05:02.950Z,-17.67
2022-11-24T12:07:50.295Z,-17.66
2022-11-24T12:10:29.298Z,-17.72
2022-11-24T12:13:10.908Z,-17.71
2022-11-24T12:15:45.028Z,-17.76
2022-11-24T12:21:27.220Z,-17.75
2022-11-24T12:24:06.459Z,-17.66
2022-11-24T12:26:43.142Z,-17.60
2022-11-24T12:29:36.139Z,-17.51
2022-11-24T12:32:17.131Z,-17.56
2022-11-24T12:34:54.257Z,-17.40
2022-11-24T12:37:45.324Z,-17.31
2022-11-24T12:40:19.507Z,-17.32
2022-11-24T12:42:57.436Z,-17.15
2022-11-24T12:45:35.155Z,-17.13
2022-11-24T12:48:21.346Z,-17.10
2022-11-24T12:50:54.278Z,-17.12
2022-11-24T12:53:27.980Z,-17.03
2022-11-24T12:56:01.818Z,-17.05
2022-11-24T12:58:39.515Z,-16.94
2022-11-24T13:01:18.962Z,-16.94
2022-11-24T13:04:01.490Z,-16.87
2022-11-24T13:06:37.250Z,-16.95
2022-11-24T13:09:11.129Z,-16.78
2022-11-24T13:11:42.805Z,-16.76
2022-11-24T13:14:19.281Z,-16.78
2022-11-24T13:17:27.553Z,-16.73
2022-11-24T13:19:43.096Z,-16.71
2022-11-24T13:22:17.876Z,-16.70
2022-11-24T13:25:05.433Z,-16.71
2022-11-24T13:27:47.320Z,-17.02
2022-11-24T13:30:55.057Z,-16.69
2022-11-24T13:33:35.583Z,-16.66
2022-11-24T13:36:32.927Z,-16.62
2022-11-24T13:39:03.396Z,-16.60
2022-11-24T13:42:43.290Z,-16.57
2022-11-24T13:45:02.568Z,-16.53
2022-11-24T13:47:45.633Z,-16.51
2022-11-24T13:50:50.449Z,-16.50
2022-11-24T13:53:27.739Z,-16.50
2022-11-24T13:56:00.205Z,-16.63
2022-11-24T13:58:34.406Z,-16.76
2022-11-24T14:01:13.210Z,-16.75
2022-11-24T14:04:07.020Z,-16.73
2022-11-24T14:06:41.271Z,-16.69
2022-11-24T14:09:25.806Z,-16.79
2022-11-24T14:12:08.336Z,-16.90
2022-11-24T14:14:37.784Z,-16.99
2022-11-24T14:17:18.191Z,-17.13
2022-11-24T14:19:49.287Z,-17.27
2022-11-24T14:22:20.031Z,-17.34
2022-11-24T14:24:54.702Z,-17.19
2022-11-24T14:27:30.546Z,-17.24
2022-11-24T14:30:02.278Z,-17.42
2022-11-24T14:35:25.750Z,-17.57
2022-11-24T14:37:55.106Z,-17.51
2022-11-24T14:41:10.782Z,-17.58
2022-11-24T14:43:40.604Z,-17.65
2022-11-24T14:46:13.403Z,-17.72
2022-11-24T14:48:50.466Z,-17.91
2022-11-24T14:51:24.838Z,-17.90
2022-11-24T14:53:57.245Z,-17.84
2022-11-24T14:56:29.219Z,-17.85
2022-11-24T14:58:59.738Z,-17.93
2022-11-24T15:01:34.380Z,-17.79
2022-11-24T15:07:18.806Z,-17.73
2022-11-24T15:09:54.117Z,-17.70
2022-11-24T15:12:29.704Z,-17.64
2022-11-24T15:15:07.544Z,-17.40
2022-11-24T15:17:37.769Z,-17.35
2022-11-24T15:20:18.990Z,-17.57
2022-11-24T15:22:49.863Z,-17.49
2022-11-24T15:25:33.946Z,-17.23
2022-11-24T15:28:03.491Z,-17.20
2022-11-24T15:30:36.655Z,-17.26
2022-11-24T15:33:14.314Z,-17.19
2022-11-24T15:35:45.533Z,-17.12
2022-11-24T15:38:15.616Z,-17.14
2022-11-24T15:40:47.561Z,-17.08
2022-11-24T15:43:25.152Z,-17.06
2022-11-24T15:45:54.381Z,-17.07
2022-11-24T15:48:23.721Z,-17.21
2022-11-24T15:50:55.079Z,-17.06
2022-11-24T15:53:29.557Z,-17.10
2022-11-24T15:55:59.694Z,-16.98
2022-11-24T15:58:29.000Z,-17.05
2022-11-24T16:00:58.205Z,-17.06
2022-11-24T16:06:24.613Z,-17.11
2022-11-24T16:08:54.586Z,-17.14
2022-11-24T16:11:24.399Z,-16.94
2022-11-24T16:13:54.512Z,-16.94
2022-11-24T16:16:25.118Z,-16.96
2022-11-24T16:18:54.493Z,-16.94
2022-11-24T16:21:25.276Z,-16.92
2022-11-24T16:23:56.660Z,-17.01
2022-11-24T16:26:25.846Z,-16.93
2022-11-24T16:28:55.148Z,-16.91
2022-11-24T16:31:26.519Z,-17.00
2022-11-24T16:33:55.718Z,-16.89
2022-11-24T16:36:27.171Z,-16.89
2022-11-24T16:38:56.303Z,-17.13
2022-11-24T16:41:27.866Z,-16.92
2022-11-24T16:43:57.086Z,-16.83
2022-11-24T16:46:27.009Z,-16.92
2022-11-24T16:49:00.670Z,-16.80
2022-11-24T16:51:34.938Z,-17.26
2022-11-24T16:54:04.755Z,-16.96
2022-11-24T16:56:33.958Z,-16.89
2022-11-24T16:59:07.044Z,-16.80
2022-11-24T17:01:36.484Z,-17.06
2022-11-24T17:04:12.447Z,-16.85
2022-11-24T17:06:46.418Z,-16.86
2022-11-24T17:09:15.563Z,-16.94
2022-11-24T17:11:44.845Z,-16.81
2022-11-24T17:14:14.209Z,-16.81
2022-11-24T17:16:44.298Z,-16.80
2022-11-24T17:19:13.572Z,-17.91
2022-11-24T17:21:42.791Z,-16.81
2022-11-24T17:24:17.884Z,-17.18
2022-11-24T17:26:49.147Z,-16.83
2022-11-24T17:29:18.563Z,-17.71
2022-11-24T17:31:47.993Z,-17.25
2022-11-24T17:34:17.239Z,-16.84
2022-11-24T17:36:46.618Z,-16.96
2022-11-24T17:39:21.785Z,-16.84
2022-11-24T17:41:54.119Z,-17.17
2022-11-24T17:44:23.456Z,-18.36
2022-11-24T17:46:52.677Z,-17.67
2022-11-24T17:49:21.877Z,-17.48
2022-11-24T17:51:51.140Z,-16.96
2022-11-24T17:54:45.308Z,-17.12
2022-11-24T17:57:11.343Z,-17.10
2022-11-24T17:59:40.664Z,-16.75
2022-11-24T18:02:11.809Z,-16.95
2022-11-24T18:04:41.091Z,-16.94
2022-11-24T18:07:10.372Z,-17.20
2022-11-24T18:09:41.176Z,-17.71
2022-11-24T18:12:10.708Z,-17.32
2022-11-24T18:14:39.957Z,-16.69
2022-11-24T18:17:09.846Z,-16.72
2022-11-24T18:19:39.146Z,-17.57
2022-11-24T18:22:08.379Z,-16.92
2022-11-24T18:24:38.252Z,-17.11
2022-11-24T18:27:09.138Z,-17.14
2022-11-24T18:29:38.328Z,-16.94
2022-11-24T18:32:08.240Z,-16.60
2022-11-24T18:34:37.992Z,-17.43
2022-11-24T18:37:08.309Z,-17.49
2022-11-24T18:39:37.532Z,-17.67
2022-11-24T18:42:09.043Z,-17.17
2022-11-24T18:44:38.334Z,-16.78
2022-11-24T18:47:07.826Z,-16.84
2022-11-24T18:49:37.032Z,-17.49
2022-11-24T18:52:06.533Z,-17.24
2022-11-24T18:54:35.994Z,-17.31
2022-11-24T18:57:05.511Z,-16.50
2022-11-24T18:59:37.247Z,-16.86
2022-11-24T19:02:06.459Z,-16.48
2022-11-24T19:04:35.840Z,-17.45
2022-11-24T19:07:05.191Z,-16.68
2022-11-24T19:09:34.506Z,-16.45
2022-11-24T19:12:04.231Z,-16.71
2022-11-24T19:14:35.449Z,-16.60
2022-11-24T19:17:05.914Z,-17.27
2022-11-24T19:19:35.139Z,-16.44
2022-11-24T19:22:05.135Z,-18.22
2022-11-24T19:24:34.704Z,-16.96
2022-11-24T19:27:04.003Z,-17.28
2022-11-24T19:29:33.180Z,-16.69
2022-11-24T19:32:03.955Z,-16.33
2022-11-24T19:34:33.463Z,-16.27
2022-11-24T19:37:02.877Z,-16.26
2022-11-24T19:39:32.063Z,-16.50
2022-11-24T19:42:01.211Z,-16.21
2022-11-24T19:44:30.455Z,-16.86
2022-11-24T19:46:59.659Z,-16.52
2022-11-24T19:49:30.316Z,-16.47
2022-11-24T19:51:59.472Z,-17.23
2022-11-24T19:54:28.699Z,-17.25
2022-11-24T19:56:57.937Z,-16.89
2022-11-24T19:59:27.157Z,-16.45
2022-11-24T20:01:56.960Z,-16.79
2022-11-24T20:04:26.247Z,-16.22
2022-11-24T20:06:57.050Z,-16.72
2022-11-24T20:09:26.998Z,-16.04
2022-11-24T20:11:56.374Z,-16.40
2022-11-24T20:14:25.508Z,-16.47
2022-11-24T20:16:54.833Z,-16.04
2022-11-24T20:19:24.138Z,-16.06
2022-11-24T20:21:56.474Z,-16.90
2022-11-24T20:24:26.195Z,-16.95
2022-11-24T20:26:58.624Z,-16.80
2022-11-24T20:29:28.720Z,-16.40
2022-11-24T20:31:58.473Z,-17.09
2022-11-24T20:34:28.783Z,-16.06
2022-11-24T20:36:59.486Z,-16.79
2022-11-24T20:39:30.039Z,-17.34
2022-11-24T20:41:59.722Z,-16.24
2022-11-24T20:44:30.307Z,-16.92
2022-11-24T20:47:00.733Z,-16.01
2022-11-24T20:49:30.542Z,-17.16
2022-11-24T20:52:02.213Z,-15.99
2022-11-24T20:54:31.399Z,-16.35
2022-11-24T20:57:00.649Z,-16.35
2022-11-24T20:59:29.813Z,-16.29
2022-11-24T21:01:59.565Z,-16.14
2022-11-24T21:04:29.337Z,-16.83
2022-11-24T21:07:00.106Z,-16.69
2022-11-24T21:09:29.323Z,-16.23
2022-11-24T21:11:58.543Z,-17.29
2022-11-24T21:14:31.203Z,-16.87
2022-11-24T21:17:04.270Z,-16.86
2022-11-24T21:19:33.384Z,-17.27
2022-11-24T21:22:04.147Z,-16.44
2022-11-24T21:24:33.465Z,-16.06
2022-11-24T21:27:02.765Z,-16.21
2022-11-24T21:29:32.021Z,-15.82
2022-11-24T21:32:01.366Z,-15.80
2022-11-24T21:34:30.607Z,-16.80
2022-11-24T21:36:59.814Z,-15.77
2022-11-24T21:39:31.274Z,-16.06
2022-11-24T21:42:00.813Z,-15.88
2022-11-24T21:44:31.469Z,-16.63
2022-11-24T21:47:00.689Z,-15.72
2022-11-24T21:49:29.842Z,-16.53
2022-11-24T21:51:59.069Z,-15.95
2022-11-24T21:54:28.283Z,-15.69
2022-11-24T21:56:58.981Z,-16.69
2022-11-24T21:59:28.177Z,-16.32
2022-11-24T22:01:57.915Z,-16.26
2022-11-24T22:04:27.105Z,-16.59
2022-11-24T22:06:56.270Z,-16.99
2022-11-24T22:09:25.418Z,-16.61
2022-11-24T22:11:55.167Z,-15.68
2022-11-24T22:14:25.895Z,-16.55
2022-11-24T22:16:55.085Z,-16.45
2022-11-24T22:19:24.316Z,-16.65
2022-11-24T22:21:53.513Z,-16.38
2022-11-24T22:24:27.054Z,-15.61
2022-11-24T22:26:56.703Z,-15.66
2022-11-24T22:29:28.375Z,-16.20
2022-11-24T22:31:57.991Z,-16.58
2022-11-24T22:34:27.233Z,-15.60
2022-11-24T22:36:56.572Z,-15.92
2022-11-24T22:39:25.734Z,-16.60
2022-11-24T22:41:56.194Z,-15.54
2022-11-24T22:44:25.398Z,-15.52
2022-11-24T22:46:56.142Z,-16.36
2022-11-24T22:49:25.468Z,-16.48
2022-11-24T22:51:54.672Z,-15.77
2022-11-24T22:54:23.955Z,-16.49
2022-11-24T22:56:53.117Z,-15.48
2022-11-24T22:59:22.348Z,-15.67
2022-11-24T23:01:51.504Z,-16.36
2022-11-24T23:04:22.304Z,-16.13
2022-11-24T23:06:51.547Z,-15.42
2022-11-24T23:09:20.845Z,-15.64
2022-11-24T23:11:50.321Z,-15.42
2022-11-24T23:14:19.652Z,-16.78
2022-11-24T23:16:49.088Z,-15.81
2022-11-24T23:19:18.700Z,-16.06
2022-11-24T23:21:49.563Z,-15.41
2022-11-24T23:24:19.005Z,-15.45
2022-11-24T23:26:48.217Z,-16.31
2022-11-24T23:29:17.551Z,-16.69
2022-11-24T23:31:46.851Z,-16.17
2022-11-24T23:34:16.221Z,-15.56
2022-11-24T23:36:45.455Z,-15.51
2022-11-24T23:39:16.423Z,-15.59
2022-11-24T23:41:45.732Z,-15.77
2022-11-24T23:44:15.153Z,-15.66
2022-11-24T23:46:44.418Z,-16.37
2022-11-24T23:49:13.740Z,-15.54
2022-11-24T23:51:43.141Z,-15.49
2022-11-24T23:54:12.348Z,-16.10
2022-11-24T23:56:43.063Z,-15.17
2022-11-24T23:59:13.845Z,-15.17
